Time;durP1;ratioP1;P1;durP2;ratioP2;P2;SDS_P1;SDS_P2;PMS_P1;PMS_P2;Temp;Humidity;BMP_temperature;BMP_pressure;BME280_temperature;BME280_humidity;BME280_pressure;Samples;Min_cycle;Max_cycle;Signal;HPM_P1;HPM_P2
2022/03/18 00:00:20;;;;;;;3.22;3.13;;;;;;;2.55;98.59;103360.63;6105601;23;20026;-65
2022/03/18 00:02:50;;;;;;;3.72;3.53;;;;;;;2.27;98.35;103322.81;6121372;23;20100;-66
2022/03/18 00:05:17;;;;;;;3.00;2.90;;;;;;;2.47;98.94;103356.97;6095341;23;20472;-65
2022/03/18 00:07:47;;;;;;;3.50;3.40;;;;;;;2.44;99.26;103357.75;6118229;23;20275;-64
2022/03/18 00:10:15;;;;;;;3.10;3.00;;;;;;;2.37;99.67;103354.16;6092293;23;20400;-65
2022/03/18 00:12:42;;;;;;;4.68;4.45;;;;;;;2.35;99.43;103358.44;6111111;23;20097;-64
2022/03/18 00:15:11;;;;;;;3.00;2.90;;;;;;;2.27;99.66;103349.59;6092496;23;20021;-64
2022/03/18 00:17:38;;;;;;;5.53;5.22;;;;;;;2.30;100.00;103359.13;6118703;23;20022;-64
2022/03/18 00:20:06;;;;;;;2.83;2.72;;;;;;;2.07;99.53;103330.06;6094580;23;20045;-64
2022/03/18 00:22:33;;;;;;;4.72;4.53;;;;;;;2.25;99.68;103364.22;6110063;23;20024;-64
2022/03/18 00:25:00;;;;;;;3.10;3.00;;;;;;;2.20;100.00;103363.22;6104843;23;20185;-65
2022/03/18 00:27:27;;;;;;;3.83;3.65;;;;;;;2.17;100.00;103369.19;6118754;23;20021;-67
2022/03/18 00:29:54;;;;;;;3.08;2.97;;;;;;;1.97;100.00;103340.19;6085744;23;20229;-65
2022/03/18 00:32:21;;;;;;;3.10;3.00;;;;;;;2.13;100.00;103375.13;6123948;23;20032;-66
2022/03/18 00:34:47;;;;;;;3.35;3.25;;;;;;;2.15;100.00;103372.59;6094362;23;20371;-65
2022/03/18 00:37:14;;;;;;;2.90;2.80;;;;;;;2.12;100.00;103372.50;6128027;23;20536;-66
2022/03/18 00:39:40;;;;;;;4.30;4.10;;;;;;;2.06;100.00;103375.81;6094186;23;20284;-66
2022/03/18 00:42:07;;;;;;;3.00;2.90;;;;;;;2.03;100.00;103369.69;6094544;23;20381;-66
2022/03/18 00:44:33;;;;;;;4.88;4.68;;;;;;;1.99;100.00;103369.59;6094157;23;20017;-65
2022/03/18 00:47:00;;;;;;;2.92;2.83;;;;;;;2.01;100.00;103376.53;6091945;23;20081;-65
2022/03/18 00:52:14;;;;;;;3.08;2.97;;;;;;;1.87;100.00;103361.50;6085926;23;20105;-65
2022/03/18 00:54:44;;;;;;;4.85;4.65;;;;;;;1.69;100.00;103341.16;6086687;23;20026;-65
2022/03/18 00:57:12;;;;;;;2.90;2.80;;;;;;;1.86;100.00;103358.88;6083568;23;20482;-65
2022/03/18 00:59:41;;;;;;;4.53;4.32;;;;;;;1.88;100.00;103373.59;6089457;23;20096;-65
2022/03/18 01:02:07;;;;;;;3.10;3.00;;;;;;;1.78;100.00;103364.72;6083194;23;20890;-65
2022/03/18 01:04:35;;;;;;;4.55;4.35;;;;;;;1.81;100.00;103383.78;6093783;23;20304;-66
2022/03/18 01:07:01;;;;;;;2.75;2.65;;;;;;;1.78;100.00;103379.38;6083205;23;20116;-64
2022/03/18 01:09:28;;;;;;;5.18;4.88;;;;;;;1.74;100.00;103383.56;6085957;23;20022;-64
2022/03/18 01:11:55;;;;;;;3.45;3.30;;;;;;;1.71;100.00;103385.22;6084987;23;20503;-64
2022/03/18 01:14:23;;;;;;;2.90;2.80;;;;;;;1.67;100.00;103392.03;6084922;23;20028;-65
2022/03/18 01:16:49;;;;;;;2.97;2.88;;;;;;;1.47;100.00;103365.56;6089931;23;20042;-64
2022/03/18 01:19:18;;;;;;;3.33;3.22;;;;;;;1.63;100.00;103399.66;6085271;23;20114;-64
2022/03/18 01:21:44;;;;;;;3.22;3.13;;;;;;;1.59;100.00;103394.38;6091204;23;20440;-64
2022/03/18 01:24:11;;;;;;;3.40;3.28;;;;;;;1.58;100.00;103397.81;6094847;23;20020;-64
2022/03/18 01:26:37;;;;;;;4.75;4.55;;;;;;;1.42;100.00;103366.28;6090992;23;20077;-65
2022/03/18 01:29:04;;;;;;;3.28;3.17;;;;;;;1.55;100.00;103397.72;6058315;23;20286;-66
2022/03/18 01:31:31;;;;;;;4.45;4.25;;;;;;;1.48;100.00;103384.56;6083181;23;20085;-67
2022/03/18 01:33:57;;;;;;;2.80;2.70;;;;;;;1.56;100.00;103403.75;6065095;23;20018;-66
2022/03/18 01:36:25;;;;;;;2.80;2.70;;;;;;;1.51;100.00;103402.78;6089874;23;20497;-64
2022/03/18 01:38:51;;;;;;;3.67;3.58;;;;;;;1.47;100.00;103408.69;6096224;23;20018;-64
2022/03/18 01:41:18;;;;;;;2.75;2.65;;;;;;;1.42;100.00;103399.91;6098941;23;20025;-65
2022/03/18 01:43:48;;;;;;;3.10;3.00;;;;;;;1.29;100.00;103393.50;6087184;23;20092;-63
2022/03/18 01:46:17;;;;;;;2.95;2.85;;;;;;;1.35;100.00;103402.31;6083774;23;20105;-66
2022/03/18 01:48:44;;;;;;;4.10;3.90;;;;;;;1.31;100.00;103400.47;6086492;23;20261;-66
2022/03/18 01:51:15;;;;;;;3.10;2.90;;;;;;;1.28;100.00;103402.94;6079640;23;20025;-67
2022/03/18 01:53:44;;;;;;;3.22;3.13;;;;;;;1.25;100.00;103412.34;6070555;23;20014;-61
2022/03/18 01:56:11;;;;;;;3.35;3.15;;;;;;;1.26;100.00;103414.09;6089281;23;20022;-64
2022/03/18 01:58:38;;;;;;;2.70;2.60;;;;;;;1.23;100.00;103430.41;6095874;23;20026;-64
2022/03/18 02:01:04;;;;;;;2.83;2.72;;;;;;;1.09;100.00;103405.84;6088167;23;20014;-68
2022/03/18 02:03:31;;;;;;;2.90;2.80;;;;;;;1.17;100.00;103425.03;6096049;23;20490;-64
2022/03/18 02:05:58;;;;;;;3.05;2.95;;;;;;;1.16;100.00;103424.19;6093718;23;20407;-66
2022/03/18 02:08:25;;;;;;;3.00;2.90;;;;;;;1.15;100.00;103418.94;6095395;23;20030;-64
2022/03/18 02:10:51;;;;;;;3.00;2.90;;;;;;;1.12;100.00;103418.84;6095792;23;20025;-64
2022/03/18 02:13:18;;;;;;;2.75;2.65;;;;;;;1.09;100.00;103431.69;6088881;23;20084;-66
2022/03/18 02:15:44;;;;;;;3.85;3.72;;;;;;;1.08;100.00;103432.50;6085551;23;20015;-64
2022/03/18 02:18:11;;;;;;;2.70;2.60;;;;;;;1.10;100.00;103433.44;6098362;23;20020;-63
2022/03/18 02:20:38;;;;;;;4.95;4.75;;;;;;;1.04;100.00;103439.28;6087693;23;20450;-64
2022/03/18 02:23:04;;;;;;;2.90;2.80;;;;;;;0.85;100.00;103418.88;6089096;23;20029;-64
2022/03/18 02:25:31;;;;;;;5.50;5.28;;;;;;;0.65;100.00;103380.31;6087573;23;20662;-64
2022/03/18 02:28:02;;;;;;;2.70;2.60;;;;;;;0.97;100.00;103448.56;6092728;23;20431;-64
2022/03/18 02:30:34;;;;;;;4.47;4.28;;;;;;;0.97;100.00;103452.88;6093183;23;20037;-64
2022/03/18 02:33:01;;;;;;;2.90;2.80;;;;;;;0.78;100.00;103434.19;6063486;23;20014;-63
2022/03/18 02:35:29;;;;;;;3.08;2.97;;;;;;;0.92;100.00;103464.75;6083189;23;20025;-64
2022/03/18 02:37:59;;;;;;;3.22;3.13;;;;;;;0.86;100.00;103449.03;6093705;23;20022;-64
2022/03/18 02:40:27;;;;;;;3.08;2.97;;;;;;;0.89;100.00;103469.84;6027704;23;20041;-64
2022/03/18 02:42:54;;;;;;;2.80;2.70;;;;;;;0.88;100.00;103471.56;6084799;23;20049;-64
2022/03/18 02:45:21;;;;;;;3.10;3.00;;;;;;;0.75;100.00;103447.00;6034146;23;20022;-64
2022/03/18 02:47:48;;;;;;;2.90;2.80;;;;;;;0.88;100.00;103475.81;6060067;23;20015;-64
2022/03/18 02:50:15;;;;;;;2.70;2.60;;;;;;;0.88;100.00;103478.41;6062096;23;20022;-65
2022/03/18 02:52:43;;;;;;;4.55;4.35;;;;;;;0.58;100.00;103428.34;6048439;23;20022;-64
2022/03/18 02:55:10;;;;;;;3.47;3.28;;;;;;;0.86;100.00;103469.72;6066912;23;20452;-63
2022/03/18 02:57:38;;;;;;;5.60;5.30;;;;;;;0.77;100.00;103460.84;6031872;23;20018;-64
2022/03/18 03:00:06;;;;;;;2.53;2.42;;;;;;;0.89;100.00;103482.78;6070318;23;20032;-64
2022/03/18 03:02:32;;;;;;;3.00;2.90;;;;;;;0.65;100.00;103439.75;6056843;23;20046;-64
2022/03/18 03:08:01;;;;;;;2.80;2.70;;;;;;;0.39;100.00;103405.31;5967594;23;20160;-64
2022/03/18 03:10:32;;;;;;;3.95;3.80;;;;;;;0.88;100.00;103488.75;6051365;23;20104;-64
2022/03/18 03:13:06;;;;;;;2.90;2.80;;;;;;;0.87;100.00;103503.41;6057622;23;20467;-64
2022/03/18 03:15:33;;;;;;;4.80;4.60;;;;;;;0.85;100.00;103507.63;6060819;23;20042;-64
2022/03/18 03:17:59;;;;;;;2.90;2.80;;;;;;;0.81;100.00;103505.78;6044140;23;20030;-64
2022/03/18 03:20:26;;;;;;;3.00;2.90;;;;;;;0.81;100.00;103503.19;6083864;23;20085;-65
2022/03/18 03:22:52;;;;;;;3.00;2.90;;;;;;;0.78;100.00;103509.16;6053940;23;20544;-63
2022/03/18 03:25:19;;;;;;;3.10;2.90;;;;;;;0.63;100.00;103485.34;6076527;23;21193;-64
2022/03/18 03:27:45;;;;;;;2.80;2.70;;;;;;;0.71;100.00;103503.72;6032390;23;20350;-64
2022/03/18 03:30:12;;;;;;;2.70;2.60;;;;;;;0.68;100.00;103503.59;6077079;23;20102;-64
2022/03/18 03:32:39;;;;;;;5.20;5.00;;;;;;;0.65;100.00;103509.53;6039013;23;20034;-64
2022/03/18 03:35:06;;;;;;;2.90;2.80;;;;;;;0.63;100.00;103506.03;6077698;23;20030;-63
2022/03/18 03:37:33;;;;;;;4.57;4.38;;;;;;;0.53;100.00;103498.78;6058632;23;20037;-64
2022/03/18 03:40:00;;;;;;;2.63;2.53;;;;;;;-0.83;100.00;103263.41;6081956;23;20665;-64
2022/03/18 03:42:26;;;;;;;2.95;2.85;;;;;;;0.56;100.00;103504.94;6066481;23;20025;-64
2022/03/18 03:44:52;;;;;;;12.27;3.65;;;;;;;0.24;100.00;103462.50;6085871;23;20048;-64
2022/03/18 03:47:19;;;;;;;3.97;3.65;;;;;;;0.51;100.00;103514.22;6085488;23;20029;-65
2022/03/18 03:49:45;;;;;;;3.30;3.13;;;;;;;0.48;100.00;103513.25;6085249;23;20096;-66
2022/03/18 03:52:12;;;;;;;3.22;3.13;;;;;;;0.17;100.00;103470.84;6086128;23;20032;-64
2022/03/18 03:54:40;;;;;;;4.20;4.00;;;;;;;0.41;100.00;103521.63;6079150;23;20088;-64
2022/03/18 03:57:07;;;;;;;2.50;2.40;;;;;;;0.28;100.00;103513.44;6054008;23;20034;-64
2022/03/18 03:59:34;;;;;;;3.50;3.40;;;;;;;0.15;100.00;103500.91;6088232;23;20049;-64
2022/03/18 04:02:03;;;;;;;2.50;2.40;;;;;;;0.03;100.00;103482.38;6059157;23;20446;-64
2022/03/18 04:04:31;;;;;;;4.55;4.35;;;;;;;0.07;100.00;103497.16;6091970;23;20028;-64
2022/03/18 04:06:57;;;;;;;3.28;3.08;;;;;;;0.07;100.00;103505.78;6069057;23;20111;-64
2022/03/18 04:09:23;;;;;;;2.80;2.70;;;;;;;0.19;100.00;103536.34;6084011;23;20510;-64
2022/03/18 04:11:50;;;;;;;2.90;2.80;;;;;;;0.16;100.00;103538.78;6070608;23;20166;-64
2022/03/18 04:14:16;;;;;;;2.80;2.70;;;;;;;0.00;100.00;103516.72;6084221;23;20081;-64
2022/03/18 04:16:44;;;;;;;3.33;3.22;;;;;;;0.09;100.00;103526.50;6060129;23;20631;-64
2022/03/18 04:19:11;;;;;;;2.78;2.67;;;;;;;0.07;100.00;103536.75;6084089;23;20022;-64
2022/03/18 04:21:38;;;;;;;2.70;2.60;;;;;;;-0.05;100.00;103526.84;6083545;23;20110;-64
2022/03/18 04:24:05;;;;;;;2.78;2.67;;;;;;;-1.11;100.00;103351.72;6081547;23;20014;-64
2022/03/18 04:26:32;;;;;;;4.90;4.70;;;;;;;-0.16;100.00;103512.69;6076694;23;20016;-64
2022/03/18 04:28:58;;;;;;;2.72;2.63;;;;;;;0.07;100.00;103562.56;6091716;23;20241;-64
2022/03/18 04:31:24;;;;;;;2.72;2.63;;;;;;;0.04;100.00;103557.31;6082253;23;20014;-64
2022/03/18 04:33:51;;;;;;;3.30;3.20;;;;;;;-0.18;100.00;103513.41;6088853;23;20017;-64
2022/03/18 04:36:17;;;;;;;3.13;3.03;;;;;;;-0.02;100.00;103541.56;6084733;23;22221;-64
2022/03/18 04:38:44;;;;;;;2.90;2.80;;;;;;;0.00;100.00;103550.28;6100963;23;20014;-64
2022/03/18 04:41:10;;;;;;;2.90;2.80;;;;;;;-0.01;100.00;103549.38;6085425;23;20057;-64
2022/03/18 04:43:37;;;;;;;4.45;4.25;;;;;;;-0.15;100.00;103541.94;6094468;23;20014;-64
2022/03/18 04:46:03;;;;;;;2.67;2.58;;;;;;;-0.15;100.00;103554.84;6089408;23;20140;-64
2022/03/18 04:48:30;;;;;;;3.55;3.45;;;;;;;-0.18;100.00;103554.72;6076873;23;20088;-65
2022/03/18 04:50:57;;;;;;;2.63;2.53;;;;;;;-0.70;100.00;103471.00;6093207;23;20088;-64
2022/03/18 04:53:23;;;;;;;3.00;2.90;;;;;;;-0.58;100.00;103489.56;6076222;23;20113;-62
2022/03/18 04:55:49;;;;;;;2.80;2.70;;;;;;;-0.29;100.00;103560.34;6089455;23;20259;-64
2022/03/18 04:58:16;;;;;;;3.50;3.30;;;;;;;-0.32;100.00;103555.09;6091282;23;20022;-64
2022/03/18 05:00:42;;;;;;;3.97;3.83;;;;;;;-0.37;100.00;103558.31;6088838;23;20423;-64
2022/03/18 05:03:12;;;;;;;2.50;2.40;;;;;;;-0.40;100.00;103564.22;6089485;23;20491;-64
2022/03/18 05:05:38;;;;;;;4.35;4.15;;;;;;;-0.42;100.00;103564.16;6084561;23;20017;-64
2022/03/18 05:08:05;;;;;;;2.80;2.70;;;;;;;-0.42;100.00;103597.69;6095985;23;20509;-64
2022/03/18 05:10:31;;;;;;;4.47;4.28;;;;;;;-0.37;100.00;103576.34;6053749;23;20423;-64
2022/03/18 05:12:58;;;;;;;2.90;2.80;;;;;;;-0.44;100.00;103586.44;6083668;23;20043;-65
2022/03/18 05:15:24;;;;;;;2.75;2.65;;;;;;;-0.49;100.00;103587.06;6087677;23;20092;-63
2022/03/18 05:17:54;;;;;;;2.55;2.45;;;;;;;-0.54;100.00;103586.88;6070374;23;20387;-64
2022/03/18 05:20:21;;;;;;;2.50;2.40;;;;;;;-0.59;100.00;103588.38;6090366;23;20032;-64
2022/03/18 05:22:47;;;;;;;3.45;3.35;;;;;;;-0.61;100.00;103600.34;6077982;23;20541;-64
2022/03/18 05:25:14;;;;;;;2.83;2.67;;;;;;;-0.56;100.00;103611.75;6091408;23;20030;-64
2022/03/18 05:27:42;;;;;;;4.30;4.10;;;;;;;-0.59;100.00;103610.72;6081207;23;20197;-65
2022/03/18 05:30:12;;;;;;;2.80;2.70;;;;;;;-0.57;100.00;103627.16;6090001;23;20032;-64
2022/03/18 05:32:40;;;;;;;4.65;4.45;;;;;;;-0.48;100.00;103631.00;6088726;23;20017;-64
2022/03/18 05:35:07;;;;;;;2.40;2.30;;;;;;;-0.39;100.00;103632.19;6085506;23;20114;-63
2022/03/18 05:37:33;;;;;;;3.55;3.35;;;;;;;-0.49;100.00;103638.66;6098106;23;20081;-64
2022/03/18 05:40:00;;;;;;;2.30;2.20;;;;;;;-0.53;100.00;103639.34;6102893;23;20113;-64
2022/03/18 05:42:26;;;;;;;3.17;3.08;;;;;;;-0.53;100.00;103644.50;6093871;23;20365;-64
2022/03/18 05:44:53;;;;;;;3.35;3.25;;;;;;;-0.60;100.00;103645.97;6117078;23;20028;-63
2022/03/18 05:47:19;;;;;;;2.50;2.40;;;;;;;-0.66;100.00;103640.53;6085293;23;20092;-63
2022/03/18 05:49:46;;;;;;;3.05;2.95;;;;;;;-0.69;100.00;103664.50;6123101;23;20603;-64
2022/03/18 05:52:12;;;;;;;2.80;2.70;;;;;;;-0.71;100.00;103653.22;6086300;23;20026;-63
2022/03/18 05:54:39;;;;;;;2.50;2.40;;;;;;;-0.72;100.00;103655.75;6123425;23;20032;-64
2022/03/18 05:57:05;;;;;;;2.70;2.60;;;;;;;-0.74;100.00;103658.28;6095204;23;20028;-64
2022/03/18 05:59:33;;;;;;;3.05;2.95;;;;;;;-0.71;100.00;103662.69;6126737;23;20025;-64
2022/03/18 06:02:00;;;;;;;2.60;2.50;;;;;;;-0.71;100.00;103676.44;6095316;23;20085;-64
2022/03/18 06:04:30;;;;;;;2.53;2.42;;;;;;;-0.68;100.00;103691.16;6120643;23;20041;-64
2022/03/18 06:06:57;;;;;;;2.50;2.40;;;;;;;-1.06;100.00;103608.81;6093561;23;20084;-64
2022/03/18 06:12:08;;;;;;;2.67;2.58;;;;;;;-0.64;100.00;103686.22;6060400;23;20073;-64
2022/03/18 06:14:35;;;;;;;4.45;4.25;;;;;;;-0.58;100.00;103698.50;6109563;23;20086;-64
2022/03/18 06:17:04;;;;;;;2.38;2.28;;;;;;;-0.56;100.00;103695.97;6060744;23;20518;-66
2022/03/18 06:19:31;;;;;;;2.38;2.28;;;;;;;-0.52;100.00;103697.84;6114388;23;20025;-64
2022/03/18 06:21:59;;;;;;;2.90;2.80;;;;;;;-0.80;100.00;103639.97;6095017;23;20089;-65
2022/03/18 06:24:25;;;;;;;2.90;2.80;;;;;;;-0.51;100.00;103684.16;6106881;23;20110;-64
2022/03/18 06:26:53;;;;;;;2.63;2.53;;;;;;;-0.42;100.00;103695.75;6090165;23;20028;-64
2022/03/18 06:29:21;;;;;;;2.60;2.50;;;;;;;-0.36;100.00;103699.38;6093243;23;20009;-65
2022/03/18 06:31:48;;;;;;;2.88;2.78;;;;;;;-0.43;100.00;103682.78;6062063;23;21171;-65
2022/03/18 06:34:16;;;;;;;2.50;2.40;;;;;;;-0.24;100.00;103708.53;6116889;23;20017;-65
2022/03/18 06:36:43;;;;;;;4.63;4.43;;;;;;;-0.17;100.00;103712.22;6071714;23;20349;-64
2022/03/18 06:39:09;;;;;;;4.03;3.83;;;;;;;-0.15;100.00;103705.44;6097723;23;20018;-64
2022/03/18 06:41:37;;;;;;;2.53;2.42;;;;;;;-0.06;100.00;103725.56;6068656;23;20036;-64
2022/03/18 06:44:04;;;;;;;2.55;2.45;;;;;;;-0.06;100.00;103721.31;6080317;23;20022;-63
2022/03/18 06:46:31;;;;;;;4.30;4.10;;;;;;;-0.04;100.00;103704.16;6107522;23;20125;-64
2022/03/18 06:48:58;;;;;;;2.60;2.50;;;;;;;0.05;100.00;103707.94;6075524;23;20439;-64
2022/03/18 06:51:24;;;;;;;2.80;2.70;;;;;;;0.23;100.00;103713.81;6103037;23;20458;-63
2022/03/18 06:53:50;;;;;;;3.35;3.25;;;;;;;0.38;100.00;103723.88;6078516;23;20025;-64
2022/03/18 06:56:17;;;;;;;2.80;2.70;;;;;;;0.49;100.00;103721.72;6097795;23;20029;-64
2022/03/18 06:58:44;;;;;;;3.88;3.72;;;;;;;0.56;100.00;103715.94;6084167;23;20460;-63
2022/03/18 07:01:11;;;;;;;2.70;2.60;;;;;;;0.41;100.00;103667.16;6099592;23;20108;-63
2022/03/18 07:03:38;;;;;;;5.00;4.80;;;;;;;0.94;100.00;103738.09;6079089;23;20092;-63
2022/03/18 07:06:06;;;;;;;2.97;2.88;;;;;;;1.13;100.00;103749.09;6098874;23;20079;-64
2022/03/18 07:08:33;;;;;;;4.78;4.57;;;;;;;1.06;100.00;103704.00;6051525;23;20042;-64
2022/03/18 07:11:03;;;;;;;2.90;2.80;;;;;;;1.54;100.00;103742.78;6081257;23;20564;-64
2022/03/18 07:13:30;;;;;;;3.55;3.45;;;;;;;1.77;100.00;103734.94;6100136;23;20048;-64
2022/03/18 07:18:46;;;;;;;2.97;2.88;;;;;;;2.13;100.00;103745.59;6099758;23;20031;-64
2022/03/18 07:21:13;;;;;;;3.20;3.10;;;;;;;2.27;100.00;103740.00;6083041;23;20018;-64
2022/03/18 07:23:39;;;;;;;5.43;5.20;;;;;;;2.53;100.00;103745.97;6113376;23;20048;-64
2022/03/18 07:26:05;;;;;;;3.10;3.00;;;;;;;2.74;100.00;103735.34;6080890;23;20104;-64
2022/03/18 07:28:32;;;;;;;3.83;3.70;;;;;;;2.91;100.00;103738.44;6104487;23;20026;-63
2022/03/18 07:30:58;;;;;;;3.75;3.55;;;;;;;3.08;100.00;103738.91;6082280;23;20423;-64
2022/03/18 07:33:25;;;;;;;26.98;3.47;;;;;;;1.90;100.00;103508.31;6100087;23;20023;-64
2022/03/18 07:35:51;;;;;;;3.15;3.05;;;;;;;3.41;100.00;103754.53;6064614;23;20041;-64
2022/03/18 07:38:17;;;;;;;3.30;3.20;;;;;;;3.61;100.00;103734.31;6098538;23;20038;-64
2022/03/18 07:40:44;;;;;;;4.40;4.20;;;;;;;3.66;100.00;103711.03;6073464;23;20014;-64
2022/03/18 07:43:10;;;;;;;3.13;3.03;;;;;;;3.79;100.00;103693.19;6082731;23;20025;-65
2022/03/18 07:45:40;;;;;;;5.35;5.15;;;;;;;4.15;100.00;103715.69;6051652;23;20060;-64
2022/03/18 07:48:08;;;;;;;3.35;3.25;;;;;;;4.29;100.00;103715.13;6080474;23;20033;-66
2022/03/18 07:50:38;;;;;;;5.03;4.82;;;;;;;4.49;100.00;103718.16;6055507;23;20022;-64
2022/03/18 07:53:08;;;;;;;3.40;3.30;;;;;;;3.74;99.47;103571.84;6082586;23;20147;-65
2022/03/18 07:55:37;;;;;;;3.22;3.13;;;;;;;4.75;98.08;103724.81;6068166;23;20022;-66
2022/03/18 07:58:04;;;;;;;3.25;3.15;;;;;;;4.69;92.05;103731.59;6084788;23;20231;-63
2022/03/18 08:00:30;;;;;;;4.35;4.15;;;;;;;4.71;90.92;103722.09;6084532;23;20030;-64
2022/03/18 08:02:57;;;;;;;3.40;3.30;;;;;;;4.90;91.63;103729.44;6099881;23;20029;-64
2022/03/18 08:05:23;;;;;;;3.80;3.60;;;;;;;4.77;90.56;103693.59;6070464;23;20034;-64
2022/03/18 08:07:56;;;;;;;4.47;4.28;;;;;;;5.15;89.89;103727.31;6085709;23;20022;-65
2022/03/18 08:10:22;;;;;;;3.67;3.47;;;;;;;5.08;88.36;103721.13;6065872;23;20352;-64
2022/03/18 08:12:49;;;;;;;4.00;3.80;;;;;;;5.34;87.28;103719.00;6087110;23;20013;-65
2022/03/18 08:15:17;;;;;;;3.30;3.20;;;;;;;5.40;86.93;103723.47;6091368;23;20022;-65
2022/03/18 08:17:44;;;;;;;3.35;3.25;;;;;;;5.26;85.75;103685.88;6096204;23;20025;-65
2022/03/18 08:20:13;;;;;;;3.50;3.40;;;;;;;5.56;85.99;103730.69;6091885;23;20014;-65
2022/03/18 08:22:41;;;;;;;3.92;3.72;;;;;;;5.60;86.12;103727.28;6085513;23;20034;-65
2022/03/18 08:25:09;;;;;;;3.70;3.50;;;;;;;5.77;85.47;103735.41;6093787;23;20036;-65
2022/03/18 08:27:36;;;;;;;3.40;3.30;;;;;;;5.85;83.69;103734.66;6099680;23;20101;-65
2022/03/18 08:30:05;;;;;;;3.17;3.08;;;;;;;5.93;82.83;103735.66;6073323;23;20048;-64
2022/03/18 08:32:32;;;;;;;3.55;3.38;;;;;;;5.97;82.23;103745.31;6096123;23;20080;-65
2022/03/18 08:34:59;;;;;;;3.20;3.10;;;;;;;6.09;82.70;103749.84;6090252;23;20032;-64
2022/03/18 08:40:12;;;;;;;4.00;3.75;;;;;;;5.75;80.85;103673.69;6088887;23;20050;-65
2022/03/18 08:42:39;;;;;;;4.65;4.45;;;;;;;6.31;78.68;103762.34;6084760;23;20085;-65
2022/03/18 08:45:06;;;;;;;3.35;3.25;;;;;;;6.32;78.68;103756.28;6074108;23;20026;-64
2022/03/18 08:47:33;;;;;;;5.25;5.05;;;;;;;6.57;78.05;103761.84;6091391;23;20033;-65
2022/03/18 08:49:59;;;;;;;3.55;3.45;;;;;;;6.66;74.76;103767.22;6059891;23;20017;-65
2022/03/18 08:52:26;;;;;;;3.42;3.33;;;;;;;6.79;74.28;103763.91;6094974;23;20036;-65
2022/03/18 08:54:52;;;;;;;3.60;3.50;;;;;;;6.88;73.80;103768.38;6089090;23;20069;-65
2022/03/18 08:57:19;;;;;;;4.30;4.10;;;;;;;6.87;74.61;103747.47;6068072;23;20095;-65
2022/03/18 08:59:45;;;;;;;4.00;3.70;;;;;;;7.13;71.64;103772.13;6118738;23;20015;-64
2022/03/18 09:02:12;;;;;;;3.80;3.60;;;;;;;7.06;70.54;103757.28;6087950;23;20022;-65
2022/03/18 09:04:38;;;;;;;4.88;4.68;;;;;;;7.12;70.30;103772.16;6080154;23;20030;-65
2022/03/18 09:07:10;;;;;;;3.40;3.30;;;;;;;7.38;72.35;103788.13;6061257;23;20030;-65
2022/03/18 09:09:37;;;;;;;5.75;5.35;;;;;;;7.48;68.88;103789.09;6081961;23;20318;-64
2022/03/18 09:12:03;;;;;;;3.53;3.42;;;;;;;7.63;68.68;103790.97;6068782;23;20430;-65
2022/03/18 09:14:30;;;;;;;4.53;4.32;;;;;;;7.77;67.88;103795.47;6080869;23;20220;-65
2022/03/18 09:16:56;;;;;;;4.82;4.40;;;;;;;7.87;65.97;103795.56;6064811;23;20605;-65
2022/03/18 09:19:23;;;;;;;3.60;3.50;;;;;;;7.97;65.90;103779.09;6087355;23;20017;-66
2022/03/18 09:21:50;;;;;;;3.47;3.38;;;;;;;8.09;66.58;103787.03;6090834;23;20973;-65
2022/03/18 09:24:16;;;;;;;3.90;3.70;;;;;;;8.09;65.81;103766.09;6083715;23;20092;-64
2022/03/18 09:26:43;;;;;;;5.80;5.40;;;;;;;8.46;64.71;103804.75;6089943;23;20708;-65
2022/03/18 09:29:10;;;;;;;3.60;3.50;;;;;;;8.32;64.22;103763.66;6093746;23;20479;-65
2022/03/18 09:31:36;;;;;;;5.05;4.85;;;;;;;8.35;62.93;103774.13;6084141;23;20101;-67
2022/03/18 09:34:03;;;;;;;3.70;3.60;;;;;;;8.61;62.41;103807.47;6091314;23;20075;-65
2022/03/18 09:36:31;;;;;;;4.90;4.70;;;;;;;8.38;63.06;103731.44;6083972;23;20394;-65
2022/03/18 09:38:58;;;;;;;3.90;3.75;;;;;;;9.12;62.60;103816.47;6102460;23;20266;-65
2022/03/18 09:41:25;;;;;;;3.50;3.40;;;;;;;9.04;60.80;103781.53;6082338;23;20025;-65
2022/03/18 09:43:52;;;;;;;3.53;3.42;;;;;;;9.14;60.20;103791.16;6084657;23;20500;-65
2022/03/18 09:46:19;;;;;;;3.80;3.70;;;;;;;9.50;61.21;103813.13;6096494;23;20033;-66
2022/03/18 09:49:02;;;;;;;;;;;;;;;9.64;60.38;103821.00;6088760;23;20529;-66
2022/03/18 09:51:29;;;;;;;4.47;4.28;;;;;;;9.56;58.74;103792.16;6059563;23;19910;-65
2022/03/18 09:54:17;;;;;;;3.70;3.60;;;;;;;9.80;53.46;103816.63;6080545;23;20006;-65
2022/03/18 09:56:45;;;;;;;5.00;4.80;;;;;;;9.89;50.49;103824.53;6083483;23;20565;-64
2022/03/18 09:59:13;;;;;;;3.75;3.65;;;;;;;9.74;49.99;103779.91;6086066;23;20085;-64
2022/03/18 10:01:39;;;;;;;4.97;4.78;;;;;;;10.02;49.16;103819.28;6094775;23;20021;-65
2022/03/18 10:04:10;;;;;;;3.70;3.60;;;;;;;10.13;49.62;103809.69;6039947;23;20025;-65
2022/03/18 10:06:38;;;;;;;5.18;4.97;;;;;;;10.23;49.92;103808.78;6084820;23;20045;-65
2022/03/18 10:09:05;;;;;;;3.70;3.60;;;;;;;10.29;51.73;103821.91;6059318;23;20022;-65
2022/03/18 10:11:34;;;;;;;5.43;5.22;;;;;;;10.36;48.55;103821.06;6083566;23;20080;-65
2022/03/18 10:14:07;;;;;;;3.50;3.40;;;;;;;10.41;47.39;103810.56;6064792;23;20052;-65
2022/03/18 10:16:35;;;;;;;;;;;;;;;10.37;49.65;103829.81;6087460;23;20014;-64
2022/03/18 10:19:04;;;;;;;3.80;3.70;;;;;;;10.45;48.54;103814.94;6088573;23;19958;-65
2022/03/18 10:21:31;;;;;;;5.07;4.88;;;;;;;10.52;48.99;103821.94;6085813;23;20466;-64
2022/03/18 10:24:09;;;;;;;3.70;3.60;;;;;;;10.73;48.63;103821.00;6084581;23;20178;-64
2022/03/18 10:26:38;;;;;;;5.38;5.18;;;;;;;10.58;49.97;103765.88;6087304;23;20020;-65
2022/03/18 10:29:05;;;;;;;3.80;3.70;;;;;;;10.88;46.87;103804.28;6090117;23;20395;-65
2022/03/18 10:31:32;;;;;;;5.45;5.25;;;;;;;11.02;46.02;103820.00;6086373;23;20109;-64
2022/03/18 10:39:45;;;;;;;4.88;4.68;;;;;;;11.20;48.38;103818.19;6080519;23;20030;-64
2022/03/18 10:42:14;;;;;;;4.10;3.90;;;;;;;11.24;47.53;103812.03;6081922;23;20081;-64
2022/03/18 10:44:54;;;;;;;5.75;5.53;;;;;;;11.03;47.62;103779.72;6056695;23;20103;-65
2022/03/18 10:47:36;;;;;;;4.03;3.83;;;;;;;11.23;44.67;103824.31;6109009;23;20033;-65
2022/03/18 10:50:11;;;;;;;4.10;3.90;;;;;;;11.29;45.63;103812.91;6085204;23;20028;-64
2022/03/18 10:52:40;;;;;;;5.55;5.35;;;;;;;11.33;44.57;103815.50;6080587;23;20407;-64
2022/03/18 10:55:28;;;;;;;3.78;3.67;;;;;;;11.41;45.77;103817.22;6087877;23;20036;-65
2022/03/18 10:57:59;;;;;;;4.90;4.70;;;;;;;11.41;46.23;103817.22;6081101;23;20161;-64
2022/03/18 11:00:32;;;;;;;3.97;3.85;;;;;;;11.31;44.84;103824.28;6092370;23;20025;-65
2022/03/18 11:03:01;;;;;;;3.85;3.75;;;;;;;11.48;48.36;103814.53;6095032;23;20435;-64
2022/03/18 11:05:34;;;;;;;4.22;4.05;;;;;;;11.55;44.04;103800.47;6089146;23;20021;-65
2022/03/18 11:08:04;;;;;;;;;;;;;;;11.92;43.71;103817.78;6083746;23;20033;-64
2022/03/18 11:13:21;;;;;;;3.92;3.80;;;;;;;12.03;44.35;103807.16;6085081;23;20498;-64
2022/03/18 11:15:49;;;;;;;4.07;3.88;;;;;;;11.97;40.75;103819.50;6109662;23;20172;-67
2022/03/18 11:18:15;;;;;;;4.20;4.00;;;;;;;12.02;40.98;103823.84;6102050;23;20041;-65
2022/03/18 11:20:43;;;;;;;6.40;5.75;;;;;;;12.12;42.74;103844.81;6085355;23;20242;-65
2022/03/18 11:23:24;;;;;;;4.30;4.10;;;;;;;12.29;42.01;103820.97;6086906;23;20025;-65
2022/03/18 11:25:58;;;;;;;4.10;3.90;;;;;;;11.97;39.82;103835.28;6049851;23;20022;-64
2022/03/18 11:28:24;;;;;;;3.83;3.72;;;;;;;11.79;41.57;103814.34;6088188;23;20089;-65
2022/03/18 11:31:01;;;;;;;4.35;4.15;;;;;;;11.71;36.55;103819.66;6092373;23;20021;-65
2022/03/18 11:33:28;;;;;;;4.18;4.03;;;;;;;11.70;39.38;103825.78;6084838;23;20470;-66
2022/03/18 11:35:55;;;;;;;4.03;3.83;;;;;;;12.05;38.55;103829.09;6086942;23;20363;-65
2022/03/18 11:38:25;;;;;;;4.10;3.90;;;;;;;12.32;40.13;103815.66;6104046;23;20245;-65
2022/03/18 11:40:53;;;;;;;4.20;4.00;;;;;;;12.20;39.23;103814.91;6053050;23;20041;-64
2022/03/18 11:43:32;;;;;;;4.15;3.95;;;;;;;12.56;38.87;103817.19;6070565;23;20518;-65
2022/03/18 11:46:13;;;;;;;3.95;3.80;;;;;;;12.55;37.00;103817.22;6042212;23;20166;-65
2022/03/18 11:48:46;;;;;;;5.80;5.55;;;;;;;12.67;36.63;103826.72;6052514;23;20014;-65
2022/03/18 11:51:30;;;;;;;4.00;3.80;;;;;;;12.54;40.04;103810.19;6065290;23;20022;-64